createdAt,value
2019-02-10T00:01:48.571Z,8.80
2019-02-10T00:04:17.615Z,8.80
2019-02-10T00:06:46.229Z,8.80
2019-02-10T00:09:14.983Z,8.80
2019-02-10T00:11:43.691Z,8.80
2019-02-10T00:14:12.383Z,8.80
2019-02-10T00:16:41.052Z,8.80
2019-02-10T00:19:09.812Z,8.80
2019-02-10T00:21:38.711Z,8.70
2019-02-10T00:24:07.572Z,8.70
2019-02-10T00:26:36.380Z,8.80
2019-02-10T00:29:05.160Z,8.80
2019-02-10T00:31:33.785Z,8.80
2019-02-10T00:34:02.431Z,8.70
2019-02-10T00:36:33.299Z,8.60
2019-02-10T00:39:01.891Z,8.50
2019-02-10T00:41:30.566Z,8.50
2019-02-10T00:43:59.283Z,8.50
2019-02-10T00:46:27.976Z,8.40
2019-02-10T00:48:56.723Z,8.50
2019-02-10T00:51:25.411Z,8.40
2019-02-10T00:53:54.114Z,8.30
2019-02-10T00:56:22.888Z,8.30
2019-02-10T00:58:51.548Z,8.30
2019-02-10T01:01:20.577Z,8.20
2019-02-10T01:03:49.924Z,8.20
2019-02-10T01:06:18.567Z,8.20
2019-02-10T01:08:47.288Z,8.20
2019-02-10T01:11:18.509Z,8.30
2019-02-10T01:13:47.183Z,8.30
2019-02-10T01:16:15.882Z,8.30
2019-02-10T01:19:07.088Z,8.30
2019-02-10T01:21:35.859Z,8.30
2019-02-10T01:24:04.671Z,8.30
2019-02-10T01:26:33.587Z,8.20
2019-02-10T01:29:02.217Z,8.20
2019-02-10T01:31:30.871Z,8.20
2019-02-10T01:33:59.599Z,8.20
2019-02-10T01:36:28.266Z,8.10
2019-02-10T01:38:56.879Z,8.10
2019-02-10T01:41:25.798Z,8.10
2019-02-10T01:43:54.459Z,8.10
2019-02-10T01:46:23.492Z,8.20
2019-02-10T01:48:52.229Z,8.10
2019-02-10T01:51:21.170Z,8.20
2019-02-10T01:53:49.943Z,8.10
2019-02-10T01:56:18.686Z,8.10
2019-02-10T01:58:47.539Z,8.10
2019-02-10T02:01:16.357Z,8.10
2019-02-10T02:03:44.988Z,8.10
2019-02-10T02:06:13.795Z,8.10
2019-02-10T02:08:43.349Z,8.00
2019-02-10T02:11:12.150Z,8.00
2019-02-10T02:13:40.828Z,8.00
2019-02-10T02:16:09.469Z,8.00
2019-02-10T02:18:38.091Z,8.00
2019-02-10T02:21:07.959Z,8.00
2019-02-10T02:23:37.004Z,7.90
2019-02-10T02:26:05.644Z,7.90
2019-02-10T02:28:34.430Z,7.90
2019-02-10T02:31:03.149Z,7.80
2019-02-10T02:33:31.870Z,7.80
2019-02-10T02:36:00.875Z,7.90
2019-02-10T02:38:29.560Z,7.90
2019-02-10T02:40:58.220Z,7.80
2019-02-10T02:43:26.834Z,7.80
2019-02-10T02:45:55.472Z,7.90
2019-02-10T02:48:24.107Z,7.90
2019-02-10T02:50:52.757Z,7.90
2019-02-10T02:53:21.407Z,7.90
2019-02-10T02:55:50.033Z,7.90
2019-02-10T02:58:18.652Z,7.90
2019-02-10T03:00:47.368Z,7.90
2019-02-10T03:03:15.976Z,7.90
2019-02-10T03:05:44.618Z,7.90
2019-02-10T03:08:13.244Z,7.80
2019-02-10T03:10:41.922Z,7.80
2019-02-10T03:13:10.869Z,7.80
2019-02-10T03:15:39.506Z,7.80
2019-02-10T03:18:08.137Z,7.80
2019-02-10T03:20:36.756Z,7.80
2019-02-10T03:23:05.351Z,7.80
2019-02-10T03:25:33.970Z,7.80
2019-02-10T03:28:02.584Z,7.80
2019-02-10T03:30:31.217Z,7.80
2019-02-10T03:32:59.828Z,7.80
2019-02-10T03:35:28.465Z,7.80
2019-02-10T03:37:57.107Z,7.80
2019-02-10T03:40:25.711Z,7.80
2019-02-10T03:42:54.333Z,7.80
2019-02-10T03:45:23.023Z,7.80
2019-02-10T03:47:51.628Z,7.80
2019-02-10T03:50:20.287Z,7.70
2019-02-10T03:52:48.905Z,7.70
2019-02-10T03:55:17.504Z,7.60
2019-02-10T03:57:46.240Z,7.60
2019-02-10T04:00:14.921Z,7.60
2019-02-10T04:02:55.683Z,7.60
2019-02-10T04:05:24.311Z,7.60
2019-02-10T04:07:53.009Z,7.60
2019-02-10T04:10:21.612Z,7.50
2019-02-10T04:12:50.241Z,7.60
2019-02-10T04:15:18.844Z,7.60
2019-02-10T04:17:47.643Z,7.60
2019-02-10T04:20:16.522Z,7.60
2019-02-10T04:22:45.219Z,7.60
2019-02-10T04:25:13.836Z,7.60
2019-02-10T04:27:42.463Z,7.60
2019-02-10T04:30:11.083Z,7.60
2019-02-10T04:32:40.201Z,7.60
2019-02-10T04:35:08.890Z,7.60
2019-02-10T04:37:45.369Z,7.50
2019-02-10T04:40:08.266Z,7.50
2019-02-10T04:42:36.882Z,7.60
2019-02-10T04:45:05.627Z,7.50
2019-02-10T04:47:34.270Z,7.50
2019-02-10T04:50:02.994Z,7.50
2019-02-10T04:52:31.633Z,7.50
2019-02-10T04:55:00.334Z,7.50
2019-02-10T04:57:29.132Z,7.50
2019-02-10T04:59:57.743Z,7.50
2019-02-10T05:02:26.730Z,7.50
2019-02-10T05:04:55.347Z,7.50
2019-02-10T05:07:24.286Z,7.40
2019-02-10T05:09:52.903Z,7.40
2019-02-10T05:12:21.511Z,7.30
2019-02-10T05:14:50.114Z,7.30
2019-02-10T05:17:18.729Z,7.20
2019-02-10T05:19:47.351Z,7.20
2019-02-10T05:22:15.968Z,7.20
2019-02-10T05:24:44.602Z,7.10
2019-02-10T05:27:13.668Z,7.00
2019-02-10T05:29:42.368Z,7.00
2019-02-10T05:32:11.105Z,6.90
2019-02-10T05:34:39.722Z,6.90
2019-02-10T05:37:08.639Z,7.00
2019-02-10T05:39:37.277Z,7.00
2019-02-10T05:42:05.879Z,7.00
2019-02-10T05:44:34.798Z,6.90
2019-02-10T05:47:03.443Z,6.90
2019-02-10T05:49:32.060Z,6.90
2019-02-10T05:52:01.006Z,6.80
2019-02-10T05:54:29.906Z,6.90
2019-02-10T05:56:58.551Z,6.90
2019-02-10T05:59:27.413Z,6.90
2019-02-10T06:02:06.112Z,6.80
2019-02-10T06:04:40.578Z,6.80
2019-02-10T06:07:12.359Z,6.80
2019-02-10T06:09:40.968Z,6.80
2019-02-10T06:12:09.586Z,6.80
2019-02-10T06:14:38.201Z,6.70
2019-02-10T06:17:06.841Z,6.70
2019-02-10T06:19:35.452Z,6.70
2019-02-10T06:22:04.075Z,6.70
2019-02-10T06:24:32.688Z,6.70
2019-02-10T06:27:01.594Z,6.70
2019-02-10T06:29:30.214Z,6.70
2019-02-10T06:31:58.846Z,6.60
2019-02-10T06:34:27.454Z,6.70
2019-02-10T06:36:56.340Z,6.60
2019-02-10T06:39:24.964Z,6.60
2019-02-10T06:41:53.557Z,6.50
2019-02-10T06:44:22.190Z,6.60
2019-02-10T06:46:50.792Z,6.50
2019-02-10T06:49:19.411Z,6.50
2019-02-10T06:51:48.076Z,6.50
2019-02-10T06:54:16.686Z,6.50
2019-02-10T06:56:45.622Z,6.50
2019-02-10T06:59:26.144Z,6.50
2019-02-10T07:01:59.365Z,6.50
2019-02-10T07:04:30.127Z,6.50
2019-02-10T07:06:58.943Z,6.40
2019-02-10T07:09:27.573Z,6.50
2019-02-10T07:11:56.191Z,6.40
2019-02-10T07:14:36.657Z,6.40
2019-02-10T07:17:24.849Z,6.40
2019-02-10T07:20:39.942Z,6.40
2019-02-10T07:23:35.040Z,6.40
2019-02-10T07:26:36.375Z,6.40
2019-02-10T07:29:42.116Z,6.40
2019-02-10T07:32:27.847Z,6.40
2019-02-10T07:35:22.479Z,6.40
2019-02-10T07:37:55.831Z,6.40
2019-02-10T07:41:17.852Z,6.40
2019-02-10T07:44:20.566Z,6.40
2019-02-10T07:47:07.525Z,6.40
2019-02-10T07:50:04.279Z,6.50
2019-02-10T07:52:54.806Z,6.40
2019-02-10T07:55:38.063Z,6.40
2019-02-10T07:59:18.738Z,6.40
2019-02-10T08:02:13.632Z,6.50
2019-02-10T08:05:01.374Z,6.50
2019-02-10T08:08:26.661Z,6.50
2019-02-10T08:11:21.765Z,6.50
2019-02-10T08:14:09.287Z,6.50
2019-02-10T08:17:14.876Z,6.60
2019-02-10T08:20:12.134Z,6.60
2019-02-10T08:23:08.519Z,6.70
2019-02-10T08:26:36.381Z,6.70
2019-02-10T08:30:04.356Z,6.80
2019-02-10T08:32:40.126Z,6.80
2019-02-10T08:35:56.018Z,6.80
2019-02-10T08:38:59.107Z,6.90
2019-02-10T08:41:51.195Z,6.90
2019-02-10T08:44:53.410Z,6.90
2019-02-10T08:47:59.390Z,7.00
2019-02-10T08:50:58.373Z,7.00
2019-02-10T08:53:30.832Z,7.00
2019-02-10T08:55:59.981Z,7.10
2019-02-10T08:58:28.591Z,7.10
2019-02-10T09:00:57.456Z,7.20
2019-02-10T09:03:26.075Z,7.20
2019-02-10T09:05:55.020Z,7.30
2019-02-10T09:08:23.623Z,7.30
2019-02-10T09:10:52.224Z,7.30
2019-02-10T09:13:20.860Z,7.30
2019-02-10T09:15:49.486Z,7.40
2019-02-10T09:18:18.340Z,7.40
2019-02-10T09:20:46.939Z,7.40
2019-02-10T09:23:15.682Z,7.40
2019-02-10T09:25:44.295Z,7.50
2019-02-10T09:28:12.939Z,7.50
2019-02-10T09:30:41.551Z,7.50
2019-02-10T09:33:10.222Z,7.50
2019-02-10T09:35:38.834Z,7.50
2019-02-10T09:38:07.545Z,7.60
2019-02-10T09:40:36.161Z,7.60
2019-02-10T09:43:04.824Z,7.60
2019-02-10T09:45:33.524Z,7.60
2019-02-10T09:48:02.523Z,7.70
2019-02-10T09:50:31.138Z,7.60
2019-02-10T09:52:59.788Z,7.70
2019-02-10T09:55:28.394Z,7.70
2019-02-10T09:57:57.062Z,7.70
2019-02-10T10:00:25.672Z,7.80
2019-02-10T10:02:54.331Z,7.80
2019-02-10T10:05:22.937Z,7.80
2019-02-10T10:07:51.577Z,7.90
2019-02-10T10:10:20.440Z,8.00
2019-02-10T10:12:49.086Z,8.10
2019-02-10T10:15:17.709Z,8.20
2019-02-10T10:17:46.370Z,8.40
2019-02-10T10:20:16.233Z,8.40
2019-02-10T10:22:44.926Z,8.40
2019-02-10T10:25:13.627Z,8.50
2019-02-10T10:27:42.275Z,8.50
2019-02-10T10:30:13.583Z,8.50
2019-02-10T10:32:42.229Z,8.50
2019-02-10T10:35:11.139Z,8.60
2019-02-10T10:37:39.823Z,8.60
2019-02-10T10:40:08.740Z,8.70
2019-02-10T10:42:37.410Z,8.70
2019-02-10T10:45:06.487Z,8.70
2019-02-10T10:47:35.136Z,8.70
2019-02-10T10:50:04.103Z,8.70
2019-02-10T10:52:32.731Z,8.80
2019-02-10T10:55:01.377Z,8.80
2019-02-10T10:57:29.966Z,8.90
2019-02-10T10:59:58.919Z,8.90
2019-02-10T11:02:27.581Z,8.90
2019-02-10T11:04:56.243Z,9.00
2019-02-10T11:07:24.903Z,9.10
2019-02-10T11:09:53.852Z,9.10
2019-02-10T11:12:22.993Z,9.20
2019-02-10T11:14:51.658Z,9.20
2019-02-10T11:17:20.304Z,9.30
2019-02-10T11:19:49.200Z,9.40
2019-02-10T11:22:17.823Z,9.50
2019-02-10T11:24:46.479Z,9.50
2019-02-10T11:27:15.079Z,9.60
2019-02-10T11:29:43.783Z,9.70
2019-02-10T11:32:12.378Z,9.70
2019-02-10T11:34:46.083Z,9.70
2019-02-10T11:37:11.373Z,9.70
2019-02-10T11:39:43.790Z,9.70
2019-02-10T11:42:10.497Z,9.70
2019-02-10T11:44:39.148Z,9.70
2019-02-10T11:47:07.758Z,9.70
2019-02-10T11:49:36.405Z,9.70
2019-02-10T11:52:05.126Z,9.80
2019-02-10T11:54:33.746Z,9.80
2019-02-10T11:57:02.344Z,9.80
2019-02-10T11:59:30.992Z,9.80
2019-02-10T12:01:59.592Z,9.80
2019-02-10T12:04:28.249Z,9.80
2019-02-10T12:06:56.862Z,9.80
2019-02-10T12:09:25.499Z,9.70
2019-02-10T12:11:54.100Z,9.80
2019-02-10T12:14:22.911Z,9.70
2019-02-10T12:16:51.511Z,9.70
2019-02-10T12:19:20.182Z,9.70
2019-02-10T12:21:48.795Z,9.70
2019-02-10T12:24:17.479Z,9.70
2019-02-10T12:26:46.104Z,9.70
2019-02-10T12:29:14.783Z,9.70
2019-02-10T12:31:43.399Z,9.70
2019-02-10T12:34:12.328Z,9.70
2019-02-10T12:36:40.974Z,9.70
2019-02-10T12:39:09.616Z,9.60
2019-02-10T12:41:38.248Z,9.50
2019-02-10T12:44:07.003Z,9.50
2019-02-10T12:46:36.224Z,9.50
2019-02-10T12:49:05.577Z,9.50
2019-02-10T12:51:34.774Z,9.50
2019-02-10T12:54:04.807Z,9.50
2019-02-10T12:56:33.439Z,9.50
2019-02-10T12:59:02.763Z,9.50
2019-02-10T13:01:31.888Z,9.50
2019-02-10T13:04:00.523Z,9.40
2019-02-10T13:06:29.125Z,9.40
2019-02-10T13:08:57.802Z,9.40
2019-02-10T13:11:26.402Z,9.40
2019-02-10T13:13:55.015Z,9.40
2019-02-10T13:16:23.697Z,9.40
2019-02-10T13:18:52.312Z,9.30
2019-02-10T13:21:21.283Z,9.30
2019-02-10T13:23:49.903Z,9.40
2019-02-10T13:26:18.589Z,9.40
2019-02-10T13:28:47.503Z,9.30
2019-02-10T13:31:16.132Z,9.40
2019-02-10T13:33:44.775Z,9.40
2019-02-10T13:36:13.486Z,9.40
2019-02-10T13:38:42.130Z,9.40
2019-02-10T13:41:10.825Z,9.40
2019-02-10T13:43:39.429Z,9.30
2019-02-10T13:46:08.419Z,9.40
2019-02-10T13:48:37.027Z,9.40
2019-02-10T13:51:05.668Z,9.40
2019-02-10T13:53:34.280Z,9.30
2019-02-10T13:56:03.404Z,9.30
2019-02-10T13:58:32.050Z,9.40
2019-02-10T14:01:00.706Z,9.40
2019-02-10T14:03:29.324Z,9.40
2019-02-10T14:05:57.976Z,9.40
2019-02-10T14:08:26.767Z,9.40
2019-02-10T14:10:55.417Z,9.40
2019-02-10T14:13:24.021Z,9.40
2019-02-10T14:15:52.696Z,9.50
2019-02-10T14:18:21.699Z,9.50
2019-02-10T14:20:50.344Z,9.60
2019-02-10T14:23:19.011Z,9.60
2019-02-10T14:25:47.672Z,9.60
2019-02-10T14:28:16.273Z,9.70
2019-02-10T14:30:45.553Z,9.70
2019-02-10T14:33:14.150Z,9.70
2019-02-10T14:35:42.903Z,9.70
2019-02-10T14:38:11.532Z,9.70
2019-02-10T14:40:40.208Z,9.80
2019-02-10T14:43:08.808Z,9.80
2019-02-10T14:45:37.474Z,9.80
2019-02-10T14:48:06.080Z,9.80
2019-02-10T14:50:35.028Z,9.80
2019-02-10T14:53:22.919Z,9.80
2019-02-10T14:56:11.087Z,9.80
2019-02-10T14:58:58.979Z,9.70
2019-02-10T15:01:46.900Z,9.70
2019-02-10T15:04:34.783Z,9.60
2019-02-10T15:07:25.177Z,9.50
2019-02-10T15:10:12.823Z,9.60
2019-02-10T15:13:00.698Z,9.60
2019-02-10T15:15:49.695Z,9.60
2019-02-10T15:18:38.251Z,9.50
2019-02-10T15:21:26.199Z,9.50
2019-02-10T15:24:14.084Z,9.50
2019-02-10T15:27:02.097Z,9.50
2019-02-10T15:29:50.073Z,9.50
2019-02-10T15:32:38.000Z,9.40
2019-02-10T15:35:18.918Z,9.40
2019-02-10T15:37:59.551Z,9.40
2019-02-10T15:40:40.759Z,9.30
2019-02-10T15:43:21.648Z,9.30
2019-02-10T15:46:02.375Z,9.40
2019-02-10T15:48:43.007Z,9.40
2019-02-10T15:51:35.622Z,9.30
2019-02-10T15:54:06.485Z,9.30
2019-02-10T15:56:47.440Z,9.30
2019-02-10T15:59:28.579Z,9.40
2019-02-10T16:02:09.377Z,9.30
2019-02-10T16:04:49.768Z,9.20
2019-02-10T16:07:30.590Z,9.20
2019-02-10T16:10:10.956Z,9.20
2019-02-10T16:12:51.432Z,9.10
2019-02-10T16:15:31.832Z,9.10
2019-02-10T16:18:12.404Z,9.10
2019-02-10T16:20:52.824Z,9.10
2019-02-10T16:23:33.204Z,9.10
2019-02-10T16:26:13.824Z,9.10
2019-02-10T16:28:54.268Z,9.10
2019-02-10T16:31:34.746Z,9.10
2019-02-10T16:36:58.239Z,9.00
2019-02-10T16:39:38.998Z,9.00
2019-02-10T16:42:19.521Z,9.00
2019-02-10T16:45:00.006Z,9.00
2019-02-10T16:47:40.664Z,9.00
2019-02-10T16:50:21.067Z,9.00
2019-02-10T16:53:01.720Z,8.90
2019-02-10T16:55:42.387Z,8.90
2019-02-10T16:58:23.250Z,8.90
2019-02-10T17:01:04.412Z,8.80
2019-02-10T17:03:45.232Z,8.80
2019-02-10T17:06:26.515Z,8.80
2019-02-10T17:11:50.211Z,8.70
2019-02-10T17:14:30.976Z,8.70
2019-02-10T17:17:11.531Z,8.60
2019-02-10T17:19:52.376Z,8.60
2019-02-10T17:22:32.860Z,8.70
2019-02-10T17:25:14.015Z,8.70
2019-02-10T17:27:54.839Z,8.70
2019-02-10T17:30:35.615Z,8.70
2019-02-10T17:33:16.191Z,8.70
2019-02-10T17:35:57.360Z,8.80
2019-02-10T17:38:38.021Z,8.70
2019-02-10T17:41:22.938Z,8.70
2019-02-10T17:46:31.784Z,8.70
2019-02-10T17:49:19.678Z,8.70
2019-02-10T17:52:07.612Z,8.80
2019-02-10T17:54:55.508Z,8.70
2019-02-10T17:57:43.442Z,8.70
2019-02-10T18:03:43.857Z,8.70
2019-02-10T18:06:31.825Z,8.70
2019-02-10T18:09:19.711Z,8.70
2019-02-10T18:12:07.639Z,8.70
2019-02-10T18:15:14.702Z,8.70
2019-02-10T18:18:14.460Z,8.50
2019-02-10T18:21:13.805Z,8.40
2019-02-10T18:24:16.461Z,8.30
2019-02-10T18:27:04.456Z,8.20
2019-02-10T18:30:04.416Z,8.20
2019-02-10T18:33:03.896Z,8.10
2019-02-10T18:35:59.388Z,7.90
2019-02-10T18:39:06.762Z,7.90
2019-02-10T18:42:20.845Z,7.90
2019-02-10T18:45:23.024Z,7.90
2019-02-10T18:48:30.377Z,7.90
2019-02-10T18:51:25.697Z,7.80
2019-02-10T18:54:32.785Z,7.80
2019-02-10T18:57:40.087Z,7.80
2019-02-10T19:00:47.261Z,7.80
2019-02-10T19:03:54.338Z,7.70
2019-02-10T19:07:01.412Z,7.60
2019-02-10T19:10:08.425Z,7.60
2019-02-10T19:13:15.480Z,7.60
2019-02-10T19:16:22.485Z,7.60
2019-02-10T19:19:03.664Z,7.60
2019-02-10T19:21:55.789Z,7.50
2019-02-10T19:24:36.588Z,7.50
2019-02-10T19:27:39.677Z,7.40
2019-02-10T19:33:37.781Z,7.40
2019-02-10T19:36:37.959Z,7.40
2019-02-10T19:39:31.389Z,7.40
2019-02-10T19:42:23.520Z,7.40
2019-02-10T19:45:29.151Z,7.30
2019-02-10T19:48:31.328Z,7.30
2019-02-10T19:51:31.272Z,7.10
2019-02-10T19:54:21.563Z,7.00
2019-02-10T19:57:21.306Z,6.90
2019-02-10T20:00:12.732Z,6.90
2019-02-10T20:03:01.131Z,6.90
2019-02-10T20:05:49.137Z,6.80
2019-02-10T20:08:56.190Z,6.70
2019-02-10T20:12:04.374Z,6.70
2019-02-10T20:15:11.994Z,6.60
2019-02-10T20:18:11.850Z,6.50
2019-02-10T20:21:17.447Z,6.40
2019-02-10T20:24:20.441Z,6.40
2019-02-10T20:30:03.258Z,6.30
2019-02-10T20:33:06.131Z,6.20
2019-02-10T20:36:06.177Z,6.10
2019-02-10T20:38:46.611Z,6.10
2019-02-10T20:41:36.981Z,6.00
2019-02-10T20:44:24.928Z,5.90
2019-02-10T20:47:31.986Z,6.00
2019-02-10T20:50:39.041Z,6.00
2019-02-10T20:53:46.140Z,5.90
2019-02-10T20:56:53.225Z,5.70
2019-02-10T21:00:00.383Z,5.70
2019-02-10T21:03:07.506Z,5.70
2019-02-10T21:06:14.541Z,5.70
2019-02-10T21:09:02.376Z,5.60
2019-02-10T21:12:00.117Z,5.60
2019-02-10T21:15:07.194Z,5.50
2019-02-10T21:18:14.380Z,5.70
2019-02-10T21:21:21.375Z,5.50
2019-02-10T21:24:28.446Z,5.40
2019-02-10T21:27:35.514Z,5.30
2019-02-10T21:30:42.536Z,5.10
2019-02-10T21:33:49.589Z,5.00
2019-02-10T21:36:52.268Z,4.90
2019-02-10T21:39:49.295Z,4.80
2019-02-10T21:42:56.424Z,4.80
2019-02-10T21:46:03.429Z,4.80
2019-02-10T21:48:56.322Z,4.80
2019-02-10T21:51:44.222Z,4.80
2019-02-10T21:54:32.248Z,4.80
2019-02-10T21:57:20.181Z,4.80
2019-02-10T22:00:28.276Z,4.80
2019-02-10T22:03:16.432Z,4.80
2019-02-10T22:06:04.348Z,4.70
2019-02-10T22:08:52.301Z,4.70
2019-02-10T22:11:40.234Z,5.60
2019-02-10T22:14:28.203Z,5.00
2019-02-10T22:22:55.602Z,5.00
2019-02-10T22:25:36.851Z,4.80
2019-02-10T22:28:17.612Z,4.80
2019-02-10T22:30:58.482Z,4.80
2019-02-10T22:33:39.207Z,4.80
2019-02-10T22:36:20.160Z,4.80
2019-02-10T22:39:00.803Z,4.90
2019-02-10T22:41:41.340Z,4.90
2019-02-10T22:44:22.039Z,4.90
2019-02-10T22:47:02.406Z,4.90
2019-02-10T22:49:43.531Z,4.90
2019-02-10T22:52:23.988Z,4.90
2019-02-10T22:55:04.710Z,5.00
2019-02-10T22:57:45.883Z,5.00
2019-02-10T23:03:33.089Z,5.00
2019-02-10T23:06:14.148Z,5.10
2019-02-10T23:08:54.935Z,5.10
2019-02-10T23:11:35.474Z,5.10
2019-02-10T23:14:16.135Z,5.20
2019-02-10T23:16:56.401Z,5.20
2019-02-10T23:19:37.078Z,5.20
2019-02-10T23:22:17.656Z,5.20
2019-02-10T23:24:58.068Z,5.20
2019-02-10T23:27:38.452Z,5.30
2019-02-10T23:30:19.261Z,5.30
2019-02-10T23:32:59.996Z,5.40
2019-02-10T23:35:40.374Z,5.40
2019-02-10T23:38:20.951Z,5.40
2019-02-10T23:41:01.600Z,5.40
2019-02-10T23:43:41.901Z,5.40
2019-02-10T23:46:22.560Z,5.40
2019-02-10T23:49:03.204Z,5.50
2019-02-10T23:51:44.389Z,5.50
2019-02-10T23:54:24.861Z,5.50
2019-02-10T23:59:47.548Z,5.50
